sensor_id;sensor_type;location;lat;lon;timestamp;P1;durP1;ratioP1;P2;durP2;ratioP2
49488;SDS011;35382;51.484;11.476;2022-10-31T00:00:55;13.05;;;5.97;;
49488;SDS011;35382;51.484;11.476;2022-10-31T00:02:36;14.52;;;5.93;;
49488;SDS011;35382;51.484;11.476;2022-10-31T00:04:17;16.92;;;6.45;;
49488;SDS011;35382;51.484;11.476;2022-10-31T00:05:58;10.38;;;6.05;;
49488;SDS011;35382;51.484;11.476;2022-10-31T00:07:42;10.55;;;5.78;;
49488;SDS011;35382;51.484;11.476;2022-10-31T00:09:23;14.30;;;6.28;;
49488;SDS011;35382;51.484;11.476;2022-10-31T00:11:07;14.63;;;6.18;;
49488;SDS011;35382;51.484;11.476;2022-10-31T00:12:49;11.05;;;6.68;;
49488;SDS011;35382;51.484;11.476;2022-10-31T00:14:31;11.65;;;6.70;;
49488;SDS011;35382;51.484;11.476;2022-10-31T00:16:22;10.38;;;6.55;;
49488;SDS011;35382;51.484;11.476;2022-10-31T00:18:05;14.73;;;7.15;;
49488;SDS011;35382;51.484;11.476;2022-10-31T00:19:47;11.20;;;6.53;;
49488;SDS011;35382;51.484;11.476;2022-10-31T00:21:29;14.80;;;6.05;;
49488;SDS011;35382;51.484;11.476;2022-10-31T00:23:10;13.60;;;6.55;;
49488;SDS011;35382;51.484;11.476;2022-10-31T00:24:52;12.38;;;6.53;;
49488;SDS011;35382;51.484;11.476;2022-10-31T00:26:32;14.75;;;6.80;;
49488;SDS011;35382;51.484;11.476;2022-10-31T00:28:13;13.30;;;6.25;;
49488;SDS011;35382;51.484;11.476;2022-10-31T00:29:54;12.55;;;5.97;;
49488;SDS011;35382;51.484;11.476;2022-10-31T00:31:35;14.60;;;5.65;;
49488;SDS011;35382;51.484;11.476;2022-10-31T00:33:16;10.23;;;5.78;;
49488;SDS011;35382;51.484;11.476;2022-10-31T00:34:57;12.05;;;6.00;;
49488;SDS011;35382;51.484;11.476;2022-10-31T00:36:39;12.93;;;5.72;;
49488;SDS011;35382;51.484;11.476;2022-10-31T00:38:20;11.57;;;6.28;;
49488;SDS011;35382;51.484;11.476;2022-10-31T00:40:01;12.57;;;5.82;;
49488;SDS011;35382;51.484;11.476;2022-10-31T00:41:41;12.35;;;6.80;;
49488;SDS011;35382;51.484;11.476;2022-10-31T00:43:26;11.93;;;5.72;;
49488;SDS011;35382;51.484;11.476;2022-10-31T00:45:08;10.88;;;5.90;;
49488;SDS011;35382;51.484;11.476;2022-10-31T00:46:49;9.95;;;5.72;;
49488;SDS011;35382;51.484;11.476;2022-10-31T00:48:35;13.82;;;6.47;;
49488;SDS011;35382;51.484;11.476;2022-10-31T00:50:16;10.43;;;5.97;;
49488;SDS011;35382;51.484;11.476;2022-10-31T00:51:57;14.93;;;6.68;;
49488;SDS011;35382;51.484;11.476;2022-10-31T00:53:38;12.63;;;6.70;;
49488;SDS011;35382;51.484;11.476;2022-10-31T00:55:19;14.90;;;6.43;;
49488;SDS011;35382;51.484;11.476;2022-10-31T00:57:00;12.27;;;6.93;;
49488;SDS011;35382;51.484;11.476;2022-10-31T00:58:41;14.43;;;6.78;;
49488;SDS011;35382;51.484;11.476;2022-10-31T01:00:23;13.43;;;6.68;;
49488;SDS011;35382;51.484;11.476;2022-10-31T01:02:04;12.60;;;6.10;;
49488;SDS011;35382;51.484;11.476;2022-10-31T01:03:45;11.27;;;7.18;;
49488;SDS011;35382;51.484;11.476;2022-10-31T01:05:27;14.55;;;7.03;;
49488;SDS011;35382;51.484;11.476;2022-10-31T01:07:08;10.80;;;6.60;;
49488;SDS011;35382;51.484;11.476;2022-10-31T01:08:49;13.65;;;6.63;;
49488;SDS011;35382;51.484;11.476;2022-10-31T01:10:30;11.25;;;6.00;;
49488;SDS011;35382;51.484;11.476;2022-10-31T01:12:11;13.43;;;7.03;;
49488;SDS011;35382;51.484;11.476;2022-10-31T01:13:53;13.38;;;7.03;;
49488;SDS011;35382;51.484;11.476;2022-10-31T01:15:34;10.50;;;6.43;;
49488;SDS011;35382;51.484;11.476;2022-10-31T01:17:15;11.20;;;6.78;;
49488;SDS011;35382;51.484;11.476;2022-10-31T01:18:56;14.13;;;7.07;;
49488;SDS011;35382;51.484;11.476;2022-10-31T01:20:37;12.15;;;6.57;;
49488;SDS011;35382;51.484;11.476;2022-10-31T01:22:18;14.00;;;6.82;;
49488;SDS011;35382;51.484;11.476;2022-10-31T01:23:59;12.35;;;6.25;;
49488;SDS011;35382;51.484;11.476;2022-10-31T01:25:42;12.77;;;6.93;;
49488;SDS011;35382;51.484;11.476;2022-10-31T01:27:23;12.95;;;6.57;;
49488;SDS011;35382;51.484;11.476;2022-10-31T01:29:05;12.80;;;7.25;;
49488;SDS011;35382;51.484;11.476;2022-10-31T01:30:49;11.68;;;7.15;;
49488;SDS011;35382;51.484;11.476;2022-10-31T01:32:30;14.10;;;6.50;;
49488;SDS011;35382;51.484;11.476;2022-10-31T01:34:13;12.88;;;7.00;;
49488;SDS011;35382;51.484;11.476;2022-10-31T01:35:55;13.23;;;6.95;;
49488;SDS011;35382;51.484;11.476;2022-10-31T01:37:36;12.95;;;7.10;;
49488;SDS011;35382;51.484;11.476;2022-10-31T01:39:32;12.63;;;7.15;;
49488;SDS011;35382;51.484;11.476;2022-10-31T01:41:14;10.75;;;6.45;;
49488;SDS011;35382;51.484;11.476;2022-10-31T01:42:57;11.35;;;6.32;;
49488;SDS011;35382;51.484;11.476;2022-10-31T01:46:20;13.38;;;7.38;;
49488;SDS011;35382;51.484;11.476;2022-10-31T01:48:06;15.65;;;8.32;;
49488;SDS011;35382;51.484;11.476;2022-10-31T01:49:54;16.67;;;6.78;;
49488;SDS011;35382;51.484;11.476;2022-10-31T01:51:38;16.38;;;7.72;;
49488;SDS011;35382;51.484;11.476;2022-10-31T01:53:25;17.35;;;8.07;;
49488;SDS011;35382;51.484;11.476;2022-10-31T01:56:54;16.13;;;7.53;;
49488;SDS011;35382;51.484;11.476;2022-10-31T01:58:36;13.27;;;7.57;;
49488;SDS011;35382;51.484;11.476;2022-10-31T02:00:18;15.23;;;6.78;;
49488;SDS011;35382;51.484;11.476;2022-10-31T02:02:01;12.07;;;6.75;;
49488;SDS011;35382;51.484;11.476;2022-10-31T02:03:42;14.10;;;7.22;;
49488;SDS011;35382;51.484;11.476;2022-10-31T02:05:24;11.45;;;6.20;;
49488;SDS011;35382;51.484;11.476;2022-10-31T02:07:16;10.32;;;6.68;;
49488;SDS011;35382;51.484;11.476;2022-10-31T02:09:03;11.80;;;6.72;;
49488;SDS011;35382;51.484;11.476;2022-10-31T02:10:45;12.25;;;7.00;;
49488;SDS011;35382;51.484;11.476;2022-10-31T02:12:26;14.75;;;6.25;;
49488;SDS011;35382;51.484;11.476;2022-10-31T02:14:12;15.30;;;6.65;;
49488;SDS011;35382;51.484;11.476;2022-10-31T02:15:54;13.35;;;6.68;;
49488;SDS011;35382;51.484;11.476;2022-10-31T02:17:37;13.10;;;6.88;;
49488;SDS011;35382;51.484;11.476;2022-10-31T02:19:21;15.40;;;7.78;;
49488;SDS011;35382;51.484;11.476;2022-10-31T02:25:25;14.18;;;6.68;;
49488;SDS011;35382;51.484;11.476;2022-10-31T02:27:31;14.20;;;7.00;;
49488;SDS011;35382;51.484;11.476;2022-10-31T02:29:44;14.23;;;7.70;;
49488;SDS011;35382;51.484;11.476;2022-10-31T02:31:56;13.77;;;6.85;;
49488;SDS011;35382;51.484;11.476;2022-10-31T02:33:45;12.55;;;7.18;;
49488;SDS011;35382;51.484;11.476;2022-10-31T02:35:58;11.85;;;6.40;;
49488;SDS011;35382;51.484;11.476;2022-10-31T02:42:20;11.50;;;6.93;;
49488;SDS011;35382;51.484;11.476;2022-10-31T02:44:14;10.02;;;6.50;;
49488;SDS011;35382;51.484;11.476;2022-10-31T02:46:24;10.77;;;6.35;;
49488;SDS011;35382;51.484;11.476;2022-10-31T02:48:22;12.10;;;6.15;;
49488;SDS011;35382;51.484;11.476;2022-10-31T02:50:08;12.18;;;6.88;;
49488;SDS011;35382;51.484;11.476;2022-10-31T02:51:56;12.05;;;6.65;;
49488;SDS011;35382;51.484;11.476;2022-10-31T02:53:37;13.40;;;6.72;;
49488;SDS011;35382;51.484;11.476;2022-10-31T02:57:11;14.00;;;6.70;;
49488;SDS011;35382;51.484;11.476;2022-10-31T02:58:55;12.13;;;6.25;;
49488;SDS011;35382;51.484;11.476;2022-10-31T03:03:08;10.68;;;6.18;;
49488;SDS011;35382;51.484;11.476;2022-10-31T03:07:18;13.13;;;6.28;;
49488;SDS011;35382;51.484;11.476;2022-10-31T03:09:07;13.18;;;7.15;;
49488;SDS011;35382;51.484;11.476;2022-10-31T03:11:09;14.60;;;7.38;;
49488;SDS011;35382;51.484;11.476;2022-10-31T03:14:53;12.68;;;6.82;;
49488;SDS011;35382;51.484;11.476;2022-10-31T03:18:32;11.20;;;6.38;;
49488;SDS011;35382;51.484;11.476;2022-10-31T03:20:21;14.10;;;7.00;;
49488;SDS011;35382;51.484;11.476;2022-10-31T03:22:22;13.50;;;6.80;;
49488;SDS011;35382;51.484;11.476;2022-10-31T03:24:05;11.45;;;6.60;;
49488;SDS011;35382;51.484;11.476;2022-10-31T03:25:49;10.18;;;6.40;;
49488;SDS011;35382;51.484;11.476;2022-10-31T03:27:32;13.95;;;7.15;;
49488;SDS011;35382;51.484;11.476;2022-10-31T03:29:16;14.88;;;7.90;;
49488;SDS011;35382;51.484;11.476;2022-10-31T03:31:02;11.05;;;6.43;;
49488;SDS011;35382;51.484;11.476;2022-10-31T03:32:48;12.57;;;6.22;;
49488;SDS011;35382;51.484;11.476;2022-10-31T03:34:33;15.65;;;6.68;;
49488;SDS011;35382;51.484;11.476;2022-10-31T03:36:16;12.85;;;6.57;;
49488;SDS011;35382;51.484;11.476;2022-10-31T03:37:59;11.52;;;6.55;;
49488;SDS011;35382;51.484;11.476;2022-10-31T03:39:41;13.30;;;6.45;;
49488;SDS011;35382;51.484;11.476;2022-10-31T03:41:25;12.20;;;6.97;;
49488;SDS011;35382;51.484;11.476;2022-10-31T03:43:13;13.50;;;6.93;;
49488;SDS011;35382;51.484;11.476;2022-10-31T03:44:59;13.88;;;7.50;;
49488;SDS011;35382;51.484;11.476;2022-10-31T03:47:01;14.02;;;7.90;;
49488;SDS011;35382;51.484;11.476;2022-10-31T03:48:44;14.07;;;7.70;;
49488;SDS011;35382;51.484;11.476;2022-10-31T03:50:26;13.30;;;6.97;;
49488;SDS011;35382;51.484;11.476;2022-10-31T03:52:35;12.45;;;7.53;;
49488;SDS011;35382;51.484;11.476;2022-10-31T03:54:25;12.70;;;7.20;;
49488;SDS011;35382;51.484;11.476;2022-10-31T03:56:19;12.75;;;6.50;;
49488;SDS011;35382;51.484;11.476;2022-10-31T03:58:06;12.65;;;7.07;;
49488;SDS011;35382;51.484;11.476;2022-10-31T03:59:51;15.38;;;6.70;;
49488;SDS011;35382;51.484;11.476;2022-10-31T04:01:40;11.85;;;6.28;;
49488;SDS011;35382;51.484;11.476;2022-10-31T04:03:26;10.82;;;6.75;;
49488;SDS011;35382;51.484;11.476;2022-10-31T04:05:11;11.60;;;7.25;;
49488;SDS011;35382;51.484;11.476;2022-10-31T04:06:53;14.68;;;7.22;;
49488;SDS011;35382;51.484;11.476;2022-10-31T04:08:41;11.40;;;6.90;;
49488;SDS011;35382;51.484;11.476;2022-10-31T04:10:30;12.90;;;7.28;;
49488;SDS011;35382;51.484;11.476;2022-10-31T04:12:13;13.10;;;7.28;;
49488;SDS011;35382;51.484;11.476;2022-10-31T04:14:12;13.65;;;7.63;;
49488;SDS011;35382;51.484;11.476;2022-10-31T04:15:53;10.90;;;7.28;;
49488;SDS011;35382;51.484;11.476;2022-10-31T04:17:39;19.35;;;8.63;;
49488;SDS011;35382;51.484;11.476;2022-10-31T04:19:22;13.63;;;7.82;;
49488;SDS011;35382;51.484;11.476;2022-10-31T04:21:05;14.35;;;7.78;;
49488;SDS011;35382;51.484;11.476;2022-10-31T04:22:47;14.95;;;7.03;;
49488;SDS011;35382;51.484;11.476;2022-10-31T04:24:28;11.90;;;7.22;;
49488;SDS011;35382;51.484;11.476;2022-10-31T04:26:10;14.30;;;8.32;;
49488;SDS011;35382;51.484;11.476;2022-10-31T04:27:52;14.55;;;8.18;;
49488;SDS011;35382;51.484;11.476;2022-10-31T04:29:48;13.48;;;7.57;;
49488;SDS011;35382;51.484;11.476;2022-10-31T04:31:29;14.07;;;7.85;;
49488;SDS011;35382;51.484;11.476;2022-10-31T04:33:11;12.18;;;7.75;;
49488;SDS011;35382;51.484;11.476;2022-10-31T04:34:52;14.90;;;6.97;;
49488;SDS011;35382;51.484;11.476;2022-10-31T04:36:33;13.10;;;7.03;;
49488;SDS011;35382;51.484;11.476;2022-10-31T04:38:14;10.98;;;7.15;;
49488;SDS011;35382;51.484;11.476;2022-10-31T04:39:57;11.98;;;7.22;;
49488;SDS011;35382;51.484;11.476;2022-10-31T04:42:10;13.07;;;7.10;;
49488;SDS011;35382;51.484;11.476;2022-10-31T04:43:51;12.52;;;6.53;;
49488;SDS011;35382;51.484;11.476;2022-10-31T04:45:33;13.55;;;7.13;;
49488;SDS011;35382;51.484;11.476;2022-10-31T04:47:14;13.30;;;7.45;;
49488;SDS011;35382;51.484;11.476;2022-10-31T04:48:55;12.25;;;7.30;;
49488;SDS011;35382;51.484;11.476;2022-10-31T04:50:38;13.27;;;7.97;;
49488;SDS011;35382;51.484;11.476;2022-10-31T04:52:18;15.52;;;7.68;;
49488;SDS011;35382;51.484;11.476;2022-10-31T04:54:00;14.65;;;7.45;;
49488;SDS011;35382;51.484;11.476;2022-10-31T04:55:43;16.20;;;7.80;;
49488;SDS011;35382;51.484;11.476;2022-10-31T04:57:43;14.73;;;8.00;;
49488;SDS011;35382;51.484;11.476;2022-10-31T04:59:25;12.48;;;7.95;;
49488;SDS011;35382;51.484;11.476;2022-10-31T05:01:08;17.45;;;8.38;;
49488;SDS011;35382;51.484;11.476;2022-10-31T05:02:51;17.27;;;8.65;;
49488;SDS011;35382;51.484;11.476;2022-10-31T05:04:33;12.82;;;7.97;;
49488;SDS011;35382;51.484;11.476;2022-10-31T05:06:14;18.40;;;8.57;;
49488;SDS011;35382;51.484;11.476;2022-10-31T05:07:57;15.73;;;8.77;;
49488;SDS011;35382;51.484;11.476;2022-10-31T05:09:39;14.80;;;9.23;;
49488;SDS011;35382;51.484;11.476;2022-10-31T05:11:20;13.50;;;8.25;;
49488;SDS011;35382;51.484;11.476;2022-10-31T05:13:01;18.77;;;9.05;;
49488;SDS011;35382;51.484;11.476;2022-10-31T05:14:58;13.45;;;8.15;;
49488;SDS011;35382;51.484;11.476;2022-10-31T05:16:57;18.58;;;8.68;;
49488;SDS011;35382;51.484;11.476;2022-10-31T05:19:04;16.95;;;8.25;;
49488;SDS011;35382;51.484;11.476;2022-10-31T05:21:04;14.82;;;8.20;;
49488;SDS011;35382;51.484;11.476;2022-10-31T05:22:56;14.05;;;8.25;;
49488;SDS011;35382;51.484;11.476;2022-10-31T05:24:39;12.50;;;7.50;;
49488;SDS011;35382;51.484;11.476;2022-10-31T05:26:20;15.15;;;8.38;;
49488;SDS011;35382;51.484;11.476;2022-10-31T05:28:02;12.60;;;8.05;;
49488;SDS011;35382;51.484;11.476;2022-10-31T05:29:43;16.55;;;8.23;;
49488;SDS011;35382;51.484;11.476;2022-10-31T05:31:24;13.85;;;8.07;;
49488;SDS011;35382;51.484;11.476;2022-10-31T05:33:07;15.93;;;9.23;;
49488;SDS011;35382;51.484;11.476;2022-10-31T05:35:00;17.40;;;8.82;;
49488;SDS011;35382;51.484;11.476;2022-10-31T05:37:13;13.38;;;7.85;;
49488;SDS011;35382;51.484;11.476;2022-10-31T05:38:54;16.25;;;8.68;;
49488;SDS011;35382;51.484;11.476;2022-10-31T05:40:38;14.35;;;8.27;;
49488;SDS011;35382;51.484;11.476;2022-10-31T05:42:20;17.83;;;8.93;;
49488;SDS011;35382;51.484;11.476;2022-10-31T05:44:02;15.00;;;9.05;;
49488;SDS011;35382;51.484;11.476;2022-10-31T05:45:44;14.45;;;8.68;;
49488;SDS011;35382;51.484;11.476;2022-10-31T05:47:51;14.20;;;8.68;;
49488;SDS011;35382;51.484;11.476;2022-10-31T05:49:53;15.02;;;8.50;;
49488;SDS011;35382;51.484;11.476;2022-10-31T05:51:52;15.38;;;8.65;;
49488;SDS011;35382;51.484;11.476;2022-10-31T05:53:38;14.38;;;8.10;;
49488;SDS011;35382;51.484;11.476;2022-10-31T05:55:20;12.57;;;7.60;;
49488;SDS011;35382;51.484;11.476;2022-10-31T05:57:17;12.80;;;7.80;;
49488;SDS011;35382;51.484;11.476;2022-10-31T05:58:58;16.77;;;9.07;;
49488;SDS011;35382;51.484;11.476;2022-10-31T06:00:40;14.90;;;7.85;;
49488;SDS011;35382;51.484;11.476;2022-10-31T06:02:23;15.57;;;8.60;;
49488;SDS011;35382;51.484;11.476;2022-10-31T06:04:23;19.63;;;7.75;;
49488;SDS011;35382;51.484;11.476;2022-10-31T06:06:03;13.77;;;8.70;;
49488;SDS011;35382;51.484;11.476;2022-10-31T06:07:49;13.27;;;7.00;;
49488;SDS011;35382;51.484;11.476;2022-10-31T06:09:30;11.25;;;7.60;;
49488;SDS011;35382;51.484;11.476;2022-10-31T06:11:11;13.20;;;8.13;;
49488;SDS011;35382;51.484;11.476;2022-10-31T06:13:11;14.52;;;8.13;;
49488;SDS011;35382;51.484;11.476;2022-10-31T06:14:58;13.57;;;8.43;;
49488;SDS011;35382;51.484;11.476;2022-10-31T06:16:39;12.85;;;7.93;;
49488;SDS011;35382;51.484;11.476;2022-10-31T06:18:40;14.57;;;8.15;;
49488;SDS011;35382;51.484;11.476;2022-10-31T06:20:21;13.60;;;7.55;;
49488;SDS011;35382;51.484;11.476;2022-10-31T06:22:12;15.45;;;7.45;;
49488;SDS011;35382;51.484;11.476;2022-10-31T06:23:53;13.45;;;7.65;;
49488;SDS011;35382;51.484;11.476;2022-10-31T06:26:06;16.30;;;9.05;;
49488;SDS011;35382;51.484;11.476;2022-10-31T06:27:47;18.15;;;8.90;;
49488;SDS011;35382;51.484;11.476;2022-10-31T06:29:29;11.88;;;7.50;;
49488;SDS011;35382;51.484;11.476;2022-10-31T06:31:21;11.73;;;7.53;;
49488;SDS011;35382;51.484;11.476;2022-10-31T06:33:03;14.65;;;7.50;;
49488;SDS011;35382;51.484;11.476;2022-10-31T06:34:45;16.33;;;9.20;;
49488;SDS011;35382;51.484;11.476;2022-10-31T06:36:28;17.73;;;8.65;;
49488;SDS011;35382;51.484;11.476;2022-10-31T06:38:09;14.00;;;8.43;;
49488;SDS011;35382;51.484;11.476;2022-10-31T06:39:53;14.82;;;8.77;;
49488;SDS011;35382;51.484;11.476;2022-10-31T06:41:34;14.80;;;8.60;;
49488;SDS011;35382;51.484;11.476;2022-10-31T06:43:17;16.05;;;8.15;;
49488;SDS011;35382;51.484;11.476;2022-10-31T06:44:58;14.10;;;9.27;;
49488;SDS011;35382;51.484;11.476;2022-10-31T06:46:58;14.52;;;8.82;;
49488;SDS011;35382;51.484;11.476;2022-10-31T06:49:11;17.92;;;9.40;;
49488;SDS011;35382;51.484;11.476;2022-10-31T06:51:00;16.48;;;9.23;;
49488;SDS011;35382;51.484;11.476;2022-10-31T06:52:42;15.95;;;9.50;;
49488;SDS011;35382;51.484;11.476;2022-10-31T06:54:23;15.10;;;9.70;;
49488;SDS011;35382;51.484;11.476;2022-10-31T06:56:04;15.68;;;9.82;;
49488;SDS011;35382;51.484;11.476;2022-10-31T06:57:57;18.48;;;9.63;;
49488;SDS011;35382;51.484;11.476;2022-10-31T06:59:39;18.08;;;9.32;;
49488;SDS011;35382;51.484;11.476;2022-10-31T07:01:29;18.92;;;8.88;;
49488;SDS011;35382;51.484;11.476;2022-10-31T07:03:12;14.35;;;9.23;;
49488;SDS011;35382;51.484;11.476;2022-10-31T07:04:54;16.77;;;9.38;;
49488;SDS011;35382;51.484;11.476;2022-10-31T07:06:35;19.48;;;10.65;;
49488;SDS011;35382;51.484;11.476;2022-10-31T07:08:16;18.95;;;11.40;;
49488;SDS011;35382;51.484;11.476;2022-10-31T07:09:57;21.52;;;10.70;;
49488;SDS011;35382;51.484;11.476;2022-10-31T07:11:54;21.23;;;12.00;;
49488;SDS011;35382;51.484;11.476;2022-10-31T07:13:35;17.88;;;10.70;;
49488;SDS011;35382;51.484;11.476;2022-10-31T07:15:21;20.63;;;11.25;;
49488;SDS011;35382;51.484;11.476;2022-10-31T07:17:03;17.20;;;10.95;;
49488;SDS011;35382;51.484;11.476;2022-10-31T07:18:54;15.20;;;10.00;;
49488;SDS011;35382;51.484;11.476;2022-10-31T07:20:35;16.77;;;10.15;;
49488;SDS011;35382;51.484;11.476;2022-10-31T07:22:17;16.65;;;10.43;;
49488;SDS011;35382;51.484;11.476;2022-10-31T07:23:59;19.65;;;11.73;;
49488;SDS011;35382;51.484;11.476;2022-10-31T07:25:58;17.58;;;10.27;;
49488;SDS011;35382;51.484;11.476;2022-10-31T07:27:46;17.73;;;10.63;;
49488;SDS011;35382;51.484;11.476;2022-10-31T07:29:27;30.75;;;17.92;;
49488;SDS011;35382;51.484;11.476;2022-10-31T07:31:08;22.65;;;14.52;;
49488;SDS011;35382;51.484;11.476;2022-10-31T07:32:51;22.48;;;12.70;;
49488;SDS011;35382;51.484;11.476;2022-10-31T07:34:33;18.65;;;12.98;;
49488;SDS011;35382;51.484;11.476;2022-10-31T07:36:43;17.85;;;12.02;;
49488;SDS011;35382;51.484;11.476;2022-10-31T07:38:27;22.00;;;13.52;;
49488;SDS011;35382;51.484;11.476;2022-10-31T07:40:08;18.92;;;13.50;;
49488;SDS011;35382;51.484;11.476;2022-10-31T07:41:50;17.48;;;12.90;;
49488;SDS011;35382;51.484;11.476;2022-10-31T07:43:33;20.17;;;13.77;;
49488;SDS011;35382;51.484;11.476;2022-10-31T07:45:32;19.98;;;14.02;;
49488;SDS011;35382;51.484;11.476;2022-10-31T07:47:43;22.35;;;12.57;;
49488;SDS011;35382;51.484;11.476;2022-10-31T07:49:47;20.17;;;10.98;;
49488;SDS011;35382;51.484;11.476;2022-10-31T07:51:47;18.48;;;10.60;;
49488;SDS011;35382;51.484;11.476;2022-10-31T07:54:00;14.48;;;10.10;;
49488;SDS011;35382;51.484;11.476;2022-10-31T07:55:44;14.65;;;10.20;;
49488;SDS011;35382;51.484;11.476;2022-10-31T07:57:27;18.30;;;10.02;;
49488;SDS011;35382;51.484;11.476;2022-10-31T07:59:09;14.50;;;10.30;;
49488;SDS011;35382;51.484;11.476;2022-10-31T08:00:50;14.75;;;10.52;;
49488;SDS011;35382;51.484;11.476;2022-10-31T08:02:42;20.25;;;12.52;;
49488;SDS011;35382;51.484;11.476;2022-10-31T08:04:46;18.88;;;11.90;;
49488;SDS011;35382;51.484;11.476;2022-10-31T08:06:50;16.50;;;9.57;;
49488;SDS011;35382;51.484;11.476;2022-10-31T08:08:42;18.75;;;13.50;;
49488;SDS011;35382;51.484;11.476;2022-10-31T08:10:24;17.85;;;11.70;;
49488;SDS011;35382;51.484;11.476;2022-10-31T08:12:05;17.48;;;11.25;;
49488;SDS011;35382;51.484;11.476;2022-10-31T08:13:49;16.73;;;10.40;;
49488;SDS011;35382;51.484;11.476;2022-10-31T08:15:30;17.70;;;10.60;;
49488;SDS011;35382;51.484;11.476;2022-10-31T08:17:13;15.55;;;9.48;;
49488;SDS011;35382;51.484;11.476;2022-10-31T08:19:14;15.20;;;9.70;;
49488;SDS011;35382;51.484;11.476;2022-10-31T08:20:57;14.35;;;9.50;;
49488;SDS011;35382;51.484;11.476;2022-10-31T08:22:37;15.30;;;9.27;;
49488;SDS011;35382;51.484;11.476;2022-10-31T08:24:18;14.90;;;9.75;;
49488;SDS011;35382;51.484;11.476;2022-10-31T08:25:59;13.60;;;9.25;;
49488;SDS011;35382;51.484;11.476;2022-10-31T08:27:40;21.30;;;8.73;;
49488;SDS011;35382;51.484;11.476;2022-10-31T08:29:30;14.85;;;9.07;;
49488;SDS011;35382;51.484;11.476;2022-10-31T08:31:11;15.73;;;9.40;;
49488;SDS011;35382;51.484;11.476;2022-10-31T08:35:15;13.63;;;9.05;;
49488;SDS011;35382;51.484;11.476;2022-10-31T08:37:16;14.77;;;8.57;;
49488;SDS011;35382;51.484;11.476;2022-10-31T08:39:01;15.30;;;8.95;;
49488;SDS011;35382;51.484;11.476;2022-10-31T08:40:43;12.90;;;8.82;;
49488;SDS011;35382;51.484;11.476;2022-10-31T08:42:24;15.30;;;9.57;;
49488;SDS011;35382;51.484;11.476;2022-10-31T08:44:05;14.80;;;9.00;;
49488;SDS011;35382;51.484;11.476;2022-10-31T08:45:49;17.52;;;9.27;;
49488;SDS011;35382;51.484;11.476;2022-10-31T08:47:37;14.88;;;8.50;;
49488;SDS011;35382;51.484;11.476;2022-10-31T08:49:19;16.00;;;10.00;;
49488;SDS011;35382;51.484;11.476;2022-10-31T08:51:00;16.90;;;9.55;;
49488;SDS011;35382;51.484;11.476;2022-10-31T08:52:43;14.32;;;9.50;;
49488;SDS011;35382;51.484;11.476;2022-10-31T08:54:24;16.80;;;9.75;;
49488;SDS011;35382;51.484;11.476;2022-10-31T08:56:10;14.02;;;8.73;;
49488;SDS011;35382;51.484;11.476;2022-10-31T08:57:57;17.45;;;8.57;;
49488;SDS011;35382;51.484;11.476;2022-10-31T08:59:44;14.63;;;8.75;;
49488;SDS011;35382;51.484;11.476;2022-10-31T09:01:39;12.82;;;8.85;;
49488;SDS011;35382;51.484;11.476;2022-10-31T09:03:21;16.98;;;9.35;;
49488;SDS011;35382;51.484;11.476;2022-10-31T09:05:04;16.13;;;8.65;;
49488;SDS011;35382;51.484;11.476;2022-10-31T09:06:45;14.27;;;8.32;;
49488;SDS011;35382;51.484;11.476;2022-10-31T09:08:31;13.02;;;8.93;;
49488;SDS011;35382;51.484;11.476;2022-10-31T09:10:15;13.85;;;9.25;;
49488;SDS011;35382;51.484;11.476;2022-10-31T09:11:56;18.85;;;9.65;;
49488;SDS011;35382;51.484;11.476;2022-10-31T09:13:55;13.50;;;9.23;;
49488;SDS011;35382;51.484;11.476;2022-10-31T09:15:43;13.23;;;8.82;;
49488;SDS011;35382;51.484;11.476;2022-10-31T09:17:34;16.05;;;8.95;;
49488;SDS011;35382;51.484;11.476;2022-10-31T09:19:32;12.20;;;8.68;;
49488;SDS011;35382;51.484;11.476;2022-10-31T09:21:13;17.13;;;10.00;;
49488;SDS011;35382;51.484;11.476;2022-10-31T09:22:57;15.57;;;9.70;;
49488;SDS011;35382;51.484;11.476;2022-10-31T09:24:44;14.90;;;9.27;;
49488;SDS011;35382;51.484;11.476;2022-10-31T09:26:25;18.75;;;10.63;;
49488;SDS011;35382;51.484;11.476;2022-10-31T09:28:26;14.80;;;9.80;;
49488;SDS011;35382;51.484;11.476;2022-10-31T09:30:09;11.98;;;8.90;;
49488;SDS011;35382;51.484;11.476;2022-10-31T09:31:50;15.13;;;9.32;;
49488;SDS011;35382;51.484;11.476;2022-10-31T09:33:43;15.13;;;10.10;;
49488;SDS011;35382;51.484;11.476;2022-10-31T09:35:44;21.70;;;10.80;;
49488;SDS011;35382;51.484;11.476;2022-10-31T09:37:26;17.52;;;10.75;;
49488;SDS011;35382;51.484;11.476;2022-10-31T09:39:07;18.55;;;11.50;;
49488;SDS011;35382;51.484;11.476;2022-10-31T09:41:00;17.63;;;10.88;;
49488;SDS011;35382;51.484;11.476;2022-10-31T09:43:02;16.52;;;11.55;;
49488;SDS011;35382;51.484;11.476;2022-10-31T09:47:13;21.92;;;12.70;;
49488;SDS011;35382;51.484;11.476;2022-10-31T09:51:37;21.77;;;13.70;;
49488;SDS011;35382;51.484;11.476;2022-10-31T09:53:39;19.05;;;12.85;;
49488;SDS011;35382;51.484;11.476;2022-10-31T09:55:34;24.73;;;12.85;;
49488;SDS011;35382;51.484;11.476;2022-10-31T09:57:25;22.00;;;14.55;;
49488;SDS011;35382;51.484;11.476;2022-10-31T09:59:15;18.98;;;13.75;;
49488;SDS011;35382;51.484;11.476;2022-10-31T10:01:02;24.77;;;15.50;;
49488;SDS011;35382;51.484;11.476;2022-10-31T10:04:48;26.20;;;14.82;;
49488;SDS011;35382;51.484;11.476;2022-10-31T10:06:38;25.10;;;15.75;;
49488;SDS011;35382;51.484;11.476;2022-10-31T10:08:43;26.77;;;16.42;;
49488;SDS011;35382;51.484;11.476;2022-10-31T10:10:48;26.92;;;14.85;;
49488;SDS011;35382;51.484;11.476;2022-10-31T10:21:22;28.92;;;17.60;;
49488;SDS011;35382;51.484;11.476;2022-10-31T10:25:28;31.00;;;17.10;;
49488;SDS011;35382;51.484;11.476;2022-10-31T10:29:08;31.23;;;16.75;;
49488;SDS011;35382;51.484;11.476;2022-10-31T10:31:13;31.30;;;17.60;;
49488;SDS011;35382;51.484;11.476;2022-10-31T10:32:57;27.73;;;16.80;;
49488;SDS011;35382;51.484;11.476;2022-10-31T10:34:41;29.48;;;17.38;;
49488;SDS011;35382;51.484;11.476;2022-10-31T10:38:29;27.85;;;16.33;;
49488;SDS011;35382;51.484;11.476;2022-10-31T10:40:18;29.90;;;16.70;;
49488;SDS011;35382;51.484;11.476;2022-10-31T10:42:04;29.10;;;17.02;;
49488;SDS011;35382;51.484;11.476;2022-10-31T10:44:10;30.98;;;16.52;;
49488;SDS011;35382;51.484;11.476;2022-10-31T10:48:22;29.73;;;16.58;;
49488;SDS011;35382;51.484;11.476;2022-10-31T10:50:19;27.70;;;16.65;;
49488;SDS011;35382;51.484;11.476;2022-10-31T10:56:35;32.47;;;18.60;;
49488;SDS011;35382;51.484;11.476;2022-10-31T10:58:22;28.77;;;16.88;;
49488;SDS011;35382;51.484;11.476;2022-10-31T11:00:12;32.50;;;17.02;;
49488;SDS011;35382;51.484;11.476;2022-10-31T11:01:57;31.02;;;17.45;;
49488;SDS011;35382;51.484;11.476;2022-10-31T11:03:39;29.60;;;18.35;;
49488;SDS011;35382;51.484;11.476;2022-10-31T11:05:24;29.77;;;18.17;;
49488;SDS011;35382;51.484;11.476;2022-10-31T11:07:16;31.45;;;18.35;;
49488;SDS011;35382;51.484;11.476;2022-10-31T11:08:57;31.13;;;17.30;;
49488;SDS011;35382;51.484;11.476;2022-10-31T11:13:01;28.75;;;16.05;;
49488;SDS011;35382;51.484;11.476;2022-10-31T11:14:58;28.80;;;15.98;;
49488;SDS011;35382;51.484;11.476;2022-10-31T11:16:45;26.75;;;16.45;;
49488;SDS011;35382;51.484;11.476;2022-10-31T11:18:30;28.90;;;17.35;;